»·PEaware :: N3533G KCMA-KTOA

N3533G :: KCMA-KTOA

FLIGHT INFORMATION

Flight Status: Arrived
Operator: Privately registered:
United States
More flights under this callsign
Pilot: Marco B. (23309)
Aircraft: CESSNA 172 SKYHAWK
(C172)
More flights by this aircraft type
Origin: KCMA Camarillo
United States
Destination: KTOA Zamperini
United States
More flights between these airports :: More routes between these airports
Route: +VTU044 GINNA V326 VNY V186 ADAMM V394 SLI
File this flight plan on PilotEdge
Remarks: Practice approaches
Altitude:
(Current/Filed)
5,000ft
Speed:
(Current/Filed)
110kts
Departed: 05-Jan-20 04:55 PM
Arrived: 05-Jan-20 06:11 PM
Distance/Time
Traveled:
44nm/1:16
Distance/Time
To Go:
Arrived

Flight Plot

Page will automatically refresh every two minutes.


Map Options




Map Legend


Flown Route
Filed Route
Departure Airport
Arrival Airport
Navaid (VOR, NDB)
Fix

Horizontal Profiles

Position Reports

Time Latitude Longitude Heading Altitude Ground
Speed
05-Jan-20 16:15 34.210350 -119.076468 90 79ft 0kts
05-Jan-20 16:16 34.210350 -119.076468 90 79ft 0kts
05-Jan-20 16:17 34.210350 -119.076468 90 79ft 0kts
05-Jan-20 16:18 34.210350 -119.076468 90 79ft 0kts
05-Jan-20 16:19 34.210350 -119.076468 90 79ft 0kts
05-Jan-20 16:20 34.210350 -119.076467 90 79ft 0kts
05-Jan-20 16:21 34.210350 -119.076467 90 79ft 0kts
05-Jan-20 16:22 34.210350 -119.076467 90 79ft 0kts
05-Jan-20 16:23 34.210350 -119.076467 90 79ft 0kts
05-Jan-20 16:24 34.210350 -119.076467 90 79ft 0kts
05-Jan-20 16:25 34.210350 -119.076467 90 79ft 0kts
05-Jan-20 16:26 34.210350 -119.076467 90 79ft 0kts
05-Jan-20 16:27 34.210350 -119.076467 90 79ft 0kts
05-Jan-20 16:28 34.210350 -119.076467 90 79ft 0kts
05-Jan-20 16:29 34.210350 -119.076467 90 79ft 0kts
05-Jan-20 16:30 34.210350 -119.076467 90 79ft 0kts
05-Jan-20 16:31 34.210350 -119.076467 90 79ft 0kts
05-Jan-20 16:32 34.210350 -119.076467 90 79ft 0kts
05-Jan-20 16:33 34.210350 -119.076467 90 79ft 0kts
05-Jan-20 16:34 34.210350 -119.076467 90 79ft 0kts
05-Jan-20 16:35 34.210350 -119.076467 90 79ft 0kts
05-Jan-20 16:36 34.210350 -119.076467 90 79ft 0kts
05-Jan-20 16:37 34.210350 -119.076467 90 79ft 0kts
05-Jan-20 16:38 34.210350 -119.076467 90 79ft 0kts
05-Jan-20 16:39 34.210350 -119.076467 90 79ft 0kts
05-Jan-20 16:40 34.210350 -119.076467 90 79ft 0kts
05-Jan-20 16:41 34.210350 -119.076467 90 79ft 0kts
05-Jan-20 16:42 34.210353 -119.076422 80 79ft 2kts
05-Jan-20 16:43 34.210903 -119.079256 273 78ft 18kts
05-Jan-20 16:44 34.211453 -119.084622 359 73ft 12kts
05-Jan-20 16:45 34.212842 -119.084625 0 76ft 0kts
05-Jan-20 16:46 34.212842 -119.084625 0 76ft 0kts
05-Jan-20 16:47 34.212843 -119.084625 0 76ft 0kts
05-Jan-20 16:48 34.212843 -119.084625 0 76ft 0kts
05-Jan-20 16:49 34.212843 -119.084625 0 76ft 0kts
05-Jan-20 16:50 34.212843 -119.084625 0 76ft 0kts
05-Jan-20 16:52 34.212852 -119.084625 359 76ft 0kts
05-Jan-20 16:53 34.212862 -119.084625 359 76ft 0kts
05-Jan-20 16:54 34.213052 -119.084623 1 76ft 8kts
05-Jan-20 16:55 34.213801 -119.099871 271 381ft 74kts
05-Jan-20 16:56 34.218115 -119.123129 287 1198ft 70kts
05-Jan-20 16:57 34.224406 -119.145764 290 1900ft 73kts
05-Jan-20 16:58 34.230780 -119.169059 288 2579ft 73kts
05-Jan-20 16:59 34.237017 -119.192612 284 3202ft 75kts
05-Jan-20 17:03 34.220721 -119.112488 287 1085ft 80kts
05-Jan-20 17:04 34.228920 -119.136913 285 1822ft 79kts
05-Jan-20 17:05 34.235607 -119.161936 283 2518ft 76kts
05-Jan-20 17:06 34.242266 -119.185680 287 3171ft 73kts
05-Jan-20 17:07 34.249412 -119.207860 287 3774ft 71kts
05-Jan-20 17:08 34.262624 -119.214257 71 4332ft 94kts
05-Jan-20 17:09 34.268197 -119.183140 75 4863ft 96kts
05-Jan-20 17:10 34.272639 -119.147822 88 4991ft 121kts
05-Jan-20 17:11 34.269473 -119.107205 102 5084ft 121kts
05-Jan-20 17:11 34.266103 -119.072959 97 5157ft 122kts
05-Jan-20 17:13 34.262208 -119.024247 95 5190ft 125kts
05-Jan-20 17:13 34.260496 -118.989297 101 5101ft 123kts
05-Jan-20 17:14 34.256847 -118.948002 94 4980ft 123kts
05-Jan-20 17:15 34.255551 -118.907054 100 4908ft 119kts
05-Jan-20 17:16 34.252386 -118.867658 97 4900ft 115kts
05-Jan-20 17:17 34.250714 -118.828653 97 5012ft 116kts
05-Jan-20 17:18 34.248057 -118.789561 100 5061ft 117kts
05-Jan-20 17:19 34.244395 -118.749780 98 5012ft 119kts
05-Jan-20 17:20 34.241786 -118.708966 100 4980ft 122kts
05-Jan-20 17:21 34.237345 -118.667652 94 5071ft 126kts
05-Jan-20 17:22 34.234053 -118.625139 93 5151ft 128kts
05-Jan-20 17:23 34.229963 -118.581635 90 5041ft 129kts
05-Jan-20 17:24 34.226284 -118.539858 84 5065ft 124kts
05-Jan-20 17:25 34.224891 -118.499126 87 5156ft 118kts
05-Jan-20 17:26 34.213671 -118.460969 102 5020ft 113kts
05-Jan-20 17:27 34.203756 -118.425872 97 5032ft 108kts
05-Jan-20 17:28 34.193799 -118.391300 105 5067ft 108kts
05-Jan-20 17:29 34.183068 -118.357766 102 5052ft 106kts
05-Jan-20 17:30 34.173584 -118.324778 101 5060ft 104kts
05-Jan-20 17:31 34.164872 -118.291386 100 5076ft 103kts
05-Jan-20 17:32 34.153641 -118.258141 119 5001ft 111kts
05-Jan-20 17:33 34.142334 -118.222616 118 4954ft 114kts
05-Jan-20 17:34 34.130105 -118.186867 118 4940ft 116kts
05-Jan-20 17:35 34.119406 -118.149285 117 4956ft 119kts
05-Jan-20 17:36 34.107693 -118.111435 116 4978ft 121kts
05-Jan-20 17:37 34.095972 -118.072571 114 5006ft 123kts
05-Jan-20 17:38 34.085734 -118.032789 113 5047ft 124kts
05-Jan-20 17:39 34.071957 -117.996191 118 5093ft 123kts
05-Jan-20 17:40 34.060324 -117.956705 107 5056ft 126kts
05-Jan-20 17:41 34.049463 -117.916952 116 5003ft 125kts
05-Jan-20 17:42 34.035825 -117.878896 115 5035ft 123kts
05-Jan-20 17:43 34.023056 -117.840420 111 5052ft 123kts
05-Jan-20 17:44 34.000802 -117.820922 209 4665ft 107kts
05-Jan-20 17:45 33.974806 -117.836607 201 4275ft 105kts
05-Jan-20 17:46 33.945047 -117.836088 181 3982ft 105kts
05-Jan-20 17:47 33.915929 -117.833711 182 3959ft 103kts
05-Jan-20 17:48 33.887054 -117.835597 191 3948ft 106kts
05-Jan-20 17:49 33.857007 -117.839432 190 4005ft 110kts
05-Jan-20 17:50 33.825987 -117.843792 191 4052ft 114kts
05-Jan-20 17:51 33.793801 -117.847704 191 4034ft 118kts
05-Jan-20 17:52 33.761249 -117.854180 192 3659ft 119kts
05-Jan-20 17:53 33.728914 -117.862197 199 3134ft 118kts
05-Jan-20 17:54 33.715941 -117.895182 261 3065ft 113kts
05-Jan-20 17:55 33.709606 -117.932512 261 3028ft 115kts
05-Jan-20 17:56 33.704006 -117.970780 261 2996ft 116kts
05-Jan-20 17:57 33.698823 -118.009422 262 2988ft 117kts
05-Jan-20 17:58 33.695689 -118.050327 265 3068ft 123kts
05-Jan-20 17:59 33.694973 -118.089326 264 3060ft 120kts
05-Jan-20 18:00 33.701399 -118.126227 290 2773ft 119kts
05-Jan-20 18:01 33.707492 -118.159159 280 2134ft 95kts
05-Jan-20 18:02 33.711532 -118.186928 277 2013ft 84kts
05-Jan-20 18:03 33.719056 -118.212394 301 2013ft 88kts
05-Jan-20 18:04 33.732970 -118.233866 311 2007ft 88kts
05-Jan-20 18:05 33.747672 -118.255014 309 1936ft 87kts
05-Jan-20 18:06 33.762167 -118.276762 309 1536ft 88kts
05-Jan-20 18:07 33.776823 -118.298332 308 1024ft 90kts
05-Jan-20 18:08 33.791274 -118.320340 309 478ft 89kts
05-Jan-20 18:09 33.804916 -118.340887 308 97ft 59kts
05-Jan-20 18:10 33.807443 -118.346270 156 88ft 12kts
05-Jan-20 18:11 33.807038 -118.346372 196 88ft 0kts
05-Jan-20 18:12 33.805379 -118.347071 82 94ft 0kts
05-Jan-20 18:13 33.802772 -118.337660 308 103ft 76kts
05-Jan-20 18:14 33.807847 -118.346165 237 87ft 18kts
05-Jan-20 18:15 33.807652 -118.346360 186 87ft 12kts

Navigation Log

Ident Type
Flight plan parsing failed, navigation log unavailable